Time;durP1;ratioP1;P1;durP2;ratioP2;P2;SDS_P1;SDS_P2;PMS_P1;PMS_P2;Temp;Humidity;BMP_temperature;BMP_pressure;BME280_temperature;BME280_humidity;BME280_pressure;Samples;Min_cycle;Max_cycle;Signal;HPM_P1;HPM_P2
2023/03/26 00:01:22;;;;;;;1.20;1.00;;;10.80;99.90;;;;;;4989917;28;20267;-63
2023/03/26 00:03:53;;;;;;;1.17;1.17;;;10.70;99.90;;;;;;4991339;28;20234;-64
2023/03/26 00:06:22;;;;;;;1.02;1.02;;;10.70;99.90;;;;;;4992802;28;20216;-64
2023/03/26 00:08:50;;;;;;;1.08;0.98;;;10.60;99.90;;;;;;4993037;28;20241;-64
2023/03/26 00:11:19;;;;;;;0.80;0.80;;;10.70;99.90;;;;;;4991007;28;20218;-63
2023/03/26 00:13:46;;;;;;;1.10;1.10;;;10.60;99.90;;;;;;4992123;28;20612;-63
2023/03/26 00:16:15;;;;;;;0.80;0.80;;;10.60;99.90;;;;;;4993220;28;20210;-65
2023/03/26 00:18:43;;;;;;;1.05;1.05;;;10.60;99.90;;;;;;4992938;28;20285;-63
2023/03/26 00:21:15;;;;;;;0.80;0.80;;;10.50;99.90;;;;;;4993685;28;20216;-63
2023/03/26 00:23:42;;;;;;;0.80;0.80;;;10.50;99.90;;;;;;4993868;28;20419;-64
2023/03/26 00:26:10;;;;;;;1.10;1.00;;;10.50;99.90;;;;;;4993283;28;20217;-63
2023/03/26 00:28:39;;;;;;;0.73;0.73;;;10.40;99.90;;;;;;4975356;28;20270;-63
2023/03/26 00:31:08;;;;;;;0.83;0.83;;;10.40;99.90;;;;;;4972417;28;20210;-64
2023/03/26 00:33:37;;;;;;;0.88;0.88;;;10.40;99.90;;;;;;4973484;28;20252;-64
2023/03/26 00:36:08;;;;;;;0.80;0.80;;;10.40;99.90;;;;;;4973709;28;20214;-64
2023/03/26 00:38:37;;;;;;;1.07;1.00;;;10.40;99.90;;;;;;4973649;28;20206;-63
2023/03/26 00:41:05;;;;;;;1.05;0.98;;;10.30;99.90;;;;;;4976355;28;20207;-63
2023/03/26 00:43:33;;;;;;;0.90;0.90;;;10.30;99.90;;;;;;4976276;28;20238;-64
2023/03/26 00:46:01;;;;;;;1.02;0.77;;;10.30;99.90;;;;;;4975261;28;20611;-62
2023/03/26 00:48:29;;;;;;;0.90;0.90;;;10.20;99.90;;;;;;4974530;28;20202;-64
2023/03/26 00:50:57;;;;;;;0.83;0.83;;;10.20;99.90;;;;;;4973021;28;20214;-65
2023/03/26 00:53:24;;;;;;;1.10;1.00;;;10.10;99.90;;;;;;4973746;28;20745;-64
2023/03/26 00:55:52;;;;;;;0.90;0.90;;;10.10;99.90;;;;;;4973606;28;20268;-65
2023/03/26 00:58:21;;;;;;;0.90;0.90;;;10.10;99.90;;;;;;4973797;28;20704;-66
2023/03/26 01:00:51;;;;;;;1.10;1.00;;;10.00;99.90;;;;;;4974956;28;20213;-66
2023/03/26 01:03:19;;;;;;;1.20;1.10;;;10.00;99.90;;;;;;4972476;28;20624;-66
2023/03/26 01:05:51;;;;;;;0.87;0.87;;;9.90;99.90;;;;;;4972081;28;20207;-64
2023/03/26 01:08:27;;;;;;;1.20;1.10;;;9.90;99.90;;;;;;4975562;28;20199;-63
2023/03/26 01:11:03;;;;;;;1.00;1.00;;;9.90;99.90;;;;;;4975608;28;20211;-64
2023/03/26 01:13:33;;;;;;;1.23;1.00;;;9.90;99.90;;;;;;4977137;28;20688;-66
2023/03/26 01:16:01;;;;;;;0.93;0.93;;;9.90;99.90;;;;;;4978936;28;20218;-65
2023/03/26 01:18:32;;;;;;;1.13;1.13;;;9.90;99.90;;;;;;4978884;28;20210;-66
2023/03/26 01:21:07;;;;;;;1.00;1.00;;;9.90;99.90;;;;;;4977531;28;20217;-65
2023/03/26 01:23:40;;;;;;;0.90;0.90;;;9.90;99.90;;;;;;4972499;28;20234;-65
2023/03/26 01:26:16;;;;;;;1.00;1.00;;;9.90;99.90;;;;;;4975037;28;20203;-64
2023/03/26 01:28:43;;;;;;;0.90;0.90;;;9.90;99.90;;;;;;4974990;28;20873;-65
2023/03/26 01:31:18;;;;;;;1.08;0.88;;;9.90;99.90;;;;;;4974592;28;20305;-65
2023/03/26 01:33:50;;;;;;;0.90;0.90;;;9.90;99.90;;;;;;4974261;28;20237;-66
2023/03/26 01:36:22;;;;;;;1.33;1.20;;;9.90;99.90;;;;;;4975198;28;20210;-65
2023/03/26 01:38:58;;;;;;;1.13;1.13;;;9.90;99.90;;;;;;4975209;28;20202;-66
2023/03/26 01:41:33;;;;;;;0.97;0.97;;;9.90;99.90;;;;;;4975706;28;20202;-66
2023/03/26 01:44:06;;;;;;;1.10;1.10;;;9.90;99.90;;;;;;4975156;28;20284;-65
2023/03/26 01:46:35;;;;;;;1.37;1.00;;;9.90;99.90;;;;;;4978002;28;20651;-65
2023/03/26 01:49:03;;;;;;;1.13;1.00;;;9.90;99.90;;;;;;4980673;28;20210;-65
2023/03/26 01:51:32;;;;;;;1.00;0.87;;;9.90;99.90;;;;;;4979057;28;20211;-65
2023/03/26 01:54:01;;;;;;;1.07;1.00;;;9.90;99.90;;;;;;4978049;28;20227;-66
2023/03/26 01:56:37;;;;;;;0.93;0.93;;;9.90;99.90;;;;;;4979253;28;20210;-64
2023/03/26 01:59:15;;;;;;;1.20;1.10;;;9.90;99.90;;;;;;4978416;28;20214;-66
2023/03/26 02:01:53;;;;;;;0.90;0.90;;;9.90;99.90;;;;;;4976600;28;20225;-66
2023/03/26 02:04:30;;;;;;;0.97;0.97;;;9.90;99.90;;;;;;4993942;28;20276;-65
2023/03/26 02:07:04;;;;;;;1.23;1.13;;;9.80;99.90;;;;;;4994495;28;20245;-65
2023/03/26 02:09:37;;;;;;;1.30;1.20;;;9.80;99.90;;;;;;4993294;28;20562;-65
2023/03/26 02:12:08;;;;;;;0.98;0.98;;;9.80;99.90;;;;;;4991711;28;20324;-63
2023/03/26 02:14:36;;;;;;;0.93;0.93;;;9.70;99.90;;;;;;4994435;28;20317;-64
2023/03/26 02:17:03;;;;;;;0.93;0.93;;;9.70;99.90;;;;;;4992191;28;20210;-65
2023/03/26 02:19:29;;;;;;;1.20;1.10;;;9.80;99.90;;;;;;4991320;28;20301;-65
2023/03/26 02:21:58;;;;;;;2.20;1.20;;;9.80;99.90;;;;;;4992082;28;20248;-65
2023/03/26 02:24:25;;;;;;;1.17;1.10;;;9.80;99.90;;;;;;4990810;28;20237;-66
2023/03/26 02:26:52;;;;;;;1.33;1.23;;;9.80;99.90;;;;;;4991377;28;20237;-65
2023/03/26 02:29:21;;;;;;;1.20;1.10;;;9.80;99.90;;;;;;4991714;28;20237;-66
2023/03/26 02:31:48;;;;;;;1.67;1.20;;;9.80;99.90;;;;;;4990393;28;20225;-64
2023/03/26 02:34:15;;;;;;;1.17;1.07;;;9.90;99.90;;;;;;4992180;28;20232;-64
2023/03/26 02:36:42;;;;;;;1.40;1.30;;;9.90;99.90;;;;;;4995201;28;20209;-64
2023/03/26 02:39:10;;;;;;;1.50;0.90;;;9.90;99.90;;;;;;4996063;28;20213;-64
2023/03/26 02:41:37;;;;;;;1.17;1.13;;;9.90;99.90;;;;;;4992092;28;20206;-65
2023/03/26 02:44:05;;;;;;;0.90;0.90;;;9.90;99.90;;;;;;4992902;28;20240;-65
2023/03/26 02:46:34;;;;;;;1.03;1.00;;;9.90;99.90;;;;;;4991871;28;20210;-65
2023/03/26 02:49:01;;;;;;;1.08;1.08;;;9.90;99.90;;;;;;4991933;28;20264;-64
2023/03/26 02:51:27;;;;;;;0.97;0.93;;;9.80;99.90;;;;;;4991455;28;20202;-64
2023/03/26 02:53:54;;;;;;;1.30;1.20;;;9.80;99.90;;;;;;4993383;28;20321;-65
2023/03/26 02:56:21;;;;;;;1.40;1.13;;;9.70;99.90;;;;;;4991921;28;20206;-65
2023/03/26 02:58:48;;;;;;;0.93;0.93;;;9.70;99.90;;;;;;4992136;28;20205;-64
2023/03/26 03:01:17;;;;;;;1.27;1.17;;;9.70;99.90;;;;;;4991423;28;20202;-64
2023/03/26 03:03:46;;;;;;;2.40;1.30;;;9.70;99.90;;;;;;4992019;28;20226;-64
2023/03/26 03:06:13;;;;;;;1.03;1.03;;;9.60;99.90;;;;;;4993336;28;20206;-64
2023/03/26 03:08:40;;;;;;;1.00;1.00;;;9.60;99.90;;;;;;4994671;28;20210;-64
2023/03/26 03:11:11;;;;;;;1.02;1.00;;;9.60;99.90;;;;;;4993622;28;20249;-65
2023/03/26 03:13:38;;;;;;;1.17;1.10;;;9.60;99.90;;;;;;4996394;28;20240;-64
2023/03/26 03:16:05;;;;;;;1.00;1.00;;;9.60;99.90;;;;;;4994295;28;20767;-65
2023/03/26 03:18:32;;;;;;;1.50;1.38;;;9.60;99.90;;;;;;4992999;28;20210;-65
2023/03/26 03:21:01;;;;;;;1.05;1.05;;;9.60;99.90;;;;;;4991037;28;20316;-63
2023/03/26 03:23:28;;;;;;;1.03;1.03;;;9.60;99.90;;;;;;4992105;28;20268;-65
2023/03/26 03:25:56;;;;;;;1.95;1.40;;;9.60;99.90;;;;;;4991365;28;20209;-65
2023/03/26 03:28:23;;;;;;;1.20;1.10;;;9.50;99.90;;;;;;4990645;28;20293;-65
2023/03/26 03:30:52;;;;;;;1.05;1.05;;;9.60;99.90;;;;;;4989973;28;20217;-64
2023/03/26 03:33:19;;;;;;;0.90;0.90;;;9.60;99.90;;;;;;4992802;28;20230;-65
2023/03/26 03:35:47;;;;;;;1.50;1.30;;;9.60;99.90;;;;;;4990865;28;20232;-64
2023/03/26 03:38:16;;;;;;;1.30;1.15;;;9.60;99.90;;;;;;4993385;28;20210;-64
2023/03/26 03:40:43;;;;;;;1.17;1.15;;;9.60;99.90;;;;;;4995602;28;20210;-66
2023/03/26 03:43:10;;;;;;;1.23;1.13;;;9.60;99.90;;;;;;4997178;28;20249;-65
2023/03/26 03:45:37;;;;;;;1.27;1.27;;;9.60;99.90;;;;;;4994822;28;20237;-65
2023/03/26 03:48:04;;;;;;;1.23;1.20;;;9.50;99.90;;;;;;4991365;28;20209;-64
2023/03/26 03:50:31;;;;;;;1.10;1.10;;;9.50;99.90;;;;;;4992917;28;20732;-65
2023/03/26 03:52:59;;;;;;;1.20;1.10;;;9.60;99.90;;;;;;4992829;28;20229;-65
2023/03/26 03:55:28;;;;;;;1.30;1.20;;;9.60;99.90;;;;;;4991072;28;20260;-65
2023/03/26 03:57:57;;;;;;;1.27;1.20;;;9.60;99.90;;;;;;4990708;28;20202;-65
2023/03/26 04:00:24;;;;;;;1.40;1.30;;;9.60;99.90;;;;;;4990621;28;20244;-65
2023/03/26 04:02:53;;;;;;;1.23;1.13;;;9.70;99.90;;;;;;4991079;28;20312;-64
2023/03/26 04:05:20;;;;;;;1.10;1.10;;;9.70;99.90;;;;;;4990687;28;20233;-65
2023/03/26 04:07:47;;;;;;;0.93;0.93;;;9.80;99.90;;;;;;4989949;28;20264;-62
2023/03/26 04:10:16;;;;;;;1.50;1.40;;;9.80;99.90;;;;;;4989630;28;20206;-64
2023/03/26 04:12:44;;;;;;;1.40;1.30;;;9.90;99.90;;;;;;4988823;28;20230;-65
2023/03/26 04:15:11;;;;;;;1.53;1.13;;;9.90;99.90;;;;;;4989534;28;20238;-63
2023/03/26 04:17:41;;;;;;;1.13;1.13;;;9.90;99.90;;;;;;4990995;28;20202;-65
2023/03/26 04:20:13;;;;;;;1.77;1.67;;;9.90;99.90;;;;;;4990011;28;20214;-65
2023/03/26 04:22:41;;;;;;;1.40;1.30;;;9.90;99.90;;;;;;4991075;28;20206;-65
2023/03/26 04:25:09;;;;;;;1.00;1.00;;;9.80;99.90;;;;;;4993290;28;20739;-65
2023/03/26 04:27:36;;;;;;;1.40;1.30;;;9.80;99.90;;;;;;4990389;28;20206;-64
2023/03/26 04:30:07;;;;;;;1.53;1.20;;;9.70;99.90;;;;;;4989554;28;20206;-64
2023/03/26 04:32:34;;;;;;;1.50;1.10;;;9.70;99.90;;;;;;4990090;28;20692;-65
2023/03/26 04:35:02;;;;;;;1.50;1.40;;;9.70;99.90;;;;;;4989091;28;20221;-64
2023/03/26 04:37:38;;;;;;;1.20;1.10;;;9.70;99.90;;;;;;4990030;28;20304;-63
2023/03/26 04:40:08;;;;;;;0.90;0.90;;;9.70;99.90;;;;;;4989380;28;20209;-64
2023/03/26 04:42:36;;;;;;;1.10;1.10;;;9.70;99.90;;;;;;4993370;28;20280;-65
2023/03/26 04:45:06;;;;;;;0.90;0.90;;;9.70;99.90;;;;;;4993685;28;20241;-64
2023/03/26 04:47:35;;;;;;;1.52;1.42;;;9.70;99.90;;;;;;4993921;28;20241;-64
2023/03/26 04:50:02;;;;;;;1.20;1.10;;;9.80;99.90;;;;;;4994567;28;20205;-65
2023/03/26 04:52:29;;;;;;;1.40;1.30;;;9.80;99.90;;;;;;4994935;28;20221;-67
2023/03/26 04:54:56;;;;;;;1.37;1.30;;;9.80;99.90;;;;;;5005763;28;20322;-64
2023/03/26 04:57:29;;;;;;;1.00;1.00;;;9.90;99.90;;;;;;5005104;28;20275;-64
2023/03/26 04:59:56;;;;;;;1.50;1.40;;;9.90;99.90;;;;;;5000538;28;20834;-65
2023/03/26 05:02:24;;;;;;;1.60;1.50;;;9.90;99.90;;;;;;5003445;28;20639;-64
2023/03/26 05:04:52;;;;;;;1.20;1.10;;;9.90;99.90;;;;;;4995572;28;20901;-64
2023/03/26 05:07:22;;;;;;;1.30;1.20;;;9.90;99.90;;;;;;4994497;28;20701;-64
2023/03/26 05:09:49;;;;;;;1.10;1.10;;;10.00;99.90;;;;;;4992098;28;20313;-64
2023/03/26 05:12:16;;;;;;;1.20;1.20;;;10.00;99.90;;;;;;4990523;28;20206;-65
2023/03/26 05:14:43;;;;;;;1.17;1.17;;;10.00;99.90;;;;;;4993418;28;20236;-65
2023/03/26 05:17:17;;;;;;;1.50;1.40;;;10.00;99.90;;;;;;4993640;28;20225;-64
2023/03/26 05:19:46;;;;;;;1.30;1.20;;;10.10;99.90;;;;;;4993858;28;20210;-64
2023/03/26 05:22:13;;;;;;;1.35;1.25;;;10.10;99.90;;;;;;4993154;28;20217;-65
2023/03/26 05:24:40;;;;;;;1.13;1.13;;;10.10;99.90;;;;;;4993195;28;20224;-65
2023/03/26 05:27:07;;;;;;;1.10;1.10;;;10.30;99.90;;;;;;4994314;28;20233;-64
2023/03/26 05:29:33;;;;;;;0.90;0.90;;;10.20;99.90;;;;;;4992963;28;20245;-65
2023/03/26 05:32:00;;;;;;;1.13;1.03;;;10.10;99.90;;;;;;4993680;28;20590;-65
2023/03/26 05:34:27;;;;;;;1.10;1.10;;;10.10;99.90;;;;;;4994511;28;20234;-64
2023/03/26 05:36:56;;;;;;;1.40;1.30;;;10.20;99.90;;;;;;4995830;28;20206;-65
2023/03/26 05:39:25;;;;;;;1.60;1.50;;;10.10;99.90;;;;;;4995824;28;20602;-65
2023/03/26 05:41:52;;;;;;;1.10;1.10;;;10.20;99.90;;;;;;4995647;28;20214;-65
2023/03/26 05:44:19;;;;;;;1.10;1.10;;;10.20;99.90;;;;;;4996119;28;20236;-64
2023/03/26 05:46:46;;;;;;;1.20;1.17;;;10.20;99.90;;;;;;4997687;28;20296;-65
2023/03/26 05:49:12;;;;;;;1.20;1.10;;;10.20;99.90;;;;;;5005269;28;20872;-64
2023/03/26 05:51:39;;;;;;;1.40;1.23;;;10.20;99.90;;;;;;5009870;28;20186;-64
2023/03/26 05:54:07;;;;;;;1.20;1.10;;;10.30;99.90;;;;;;5015656;28;20248;-64
2023/03/26 05:56:34;;;;;;;1.50;1.40;;;10.20;99.90;;;;;;5015196;28;20241;-66
2023/03/26 05:59:01;;;;;;;1.50;1.40;;;10.10;99.90;;;;;;5013641;28;20212;-65
2023/03/26 06:01:28;;;;;;;1.40;1.30;;;10.10;99.90;;;;;;5009916;28;20204;-65
2023/03/26 06:03:55;;;;;;;1.50;1.40;;;10.10;99.90;;;;;;5001130;28;20226;-64
2023/03/26 06:06:22;;;;;;;1.47;1.37;;;10.10;99.90;;;;;;4997937;28;20298;-65
2023/03/26 06:08:51;;;;;;;1.40;1.30;;;10.10;99.90;;;;;;4995199;28;20261;-65
2023/03/26 06:11:20;;;;;;;1.95;1.52;;;10.10;99.90;;;;;;4994737;28;20249;-64
2023/03/26 06:13:47;;;;;;;1.60;1.50;;;10.20;99.90;;;;;;4995528;28;20240;-63
2023/03/26 06:16:16;;;;;;;2.40;1.50;;;10.10;99.90;;;;;;4992623;28;20210;-64
2023/03/26 06:18:43;;;;;;;1.53;1.27;;;10.30;99.90;;;;;;4991310;28;20248;-65
2023/03/26 06:21:10;;;;;;;1.20;1.10;;;10.10;99.90;;;;;;4989962;28;20619;-63
2023/03/26 06:23:37;;;;;;;1.30;1.20;;;10.20;99.90;;;;;;4992788;28;20242;-65
2023/03/26 06:26:04;;;;;;;1.07;1.07;;;10.20;99.90;;;;;;4991906;28;20224;-64
2023/03/26 06:28:34;;;;;;;1.08;1.08;;;10.30;99.90;;;;;;4991258;28;20672;-64
2023/03/26 06:31:01;;;;;;;1.13;1.13;;;10.30;99.90;;;;;;4991737;28;20209;-64
2023/03/26 06:33:29;;;;;;;1.33;1.23;;;10.30;99.90;;;;;;4993942;28;20226;-65
2023/03/26 06:35:56;;;;;;;1.50;1.20;;;10.40;99.90;;;;;;4976590;28;20224;-65
2023/03/26 06:38:23;;;;;;;1.43;1.33;;;10.50;99.90;;;;;;4991357;28;20574;-62
2023/03/26 06:40:50;;;;;;;1.40;1.30;;;10.50;99.90;;;;;;4990295;28;20214;-64
2023/03/26 06:43:17;;;;;;;1.40;1.30;;;10.50;99.90;;;;;;4990036;28;20198;-65
2023/03/26 06:45:45;;;;;;;1.10;1.10;;;10.50;99.90;;;;;;4989730;28;20293;-65
2023/03/26 06:48:12;;;;;;;1.20;1.20;;;10.50;99.90;;;;;;4992342;28;20208;-64
2023/03/26 06:50:39;;;;;;;1.27;1.17;;;10.40;99.90;;;;;;4988270;28;20210;-64
2023/03/26 06:53:06;;;;;;;1.33;1.23;;;10.40;99.90;;;;;;4991828;28;20625;-65
2023/03/26 06:55:32;;;;;;;1.10;1.10;;;10.50;99.90;;;;;;4990697;28;20229;-66
2023/03/26 06:57:59;;;;;;;1.20;1.10;;;10.40;99.90;;;;;;4991364;28;20743;-64
2023/03/26 07:00:26;;;;;;;1.60;1.50;;;10.40;99.90;;;;;;4990851;28;20301;-64
2023/03/26 07:02:54;;;;;;;1.57;1.30;;;10.50;99.90;;;;;;4989064;28;20202;-64
2023/03/26 07:05:21;;;;;;;1.30;1.20;;;10.50;99.90;;;;;;4992742;28;20244;-64
2023/03/26 07:07:48;;;;;;;1.33;1.23;;;10.40;99.90;;;;;;4993018;28;20305;-63
2023/03/26 07:10:15;;;;;;;1.20;1.20;;;10.50;99.90;;;;;;4992668;28;20212;-64
2023/03/26 07:12:42;;;;;;;1.27;1.20;;;10.50;99.90;;;;;;4993109;28;20206;-63
2023/03/26 07:15:10;;;;;;;1.00;1.00;;;10.50;99.90;;;;;;4993822;28;20283;-65
2023/03/26 07:17:37;;;;;;;0.93;0.93;;;10.50;99.90;;;;;;4993891;28;20209;-63
2023/03/26 07:20:06;;;;;;;1.08;1.08;;;10.50;99.90;;;;;;4992452;28;20609;-63
2023/03/26 07:22:35;;;;;;;1.30;1.20;;;10.50;99.90;;;;;;4993309;28;20214;-64
2023/03/26 07:25:02;;;;;;;1.20;1.10;;;10.60;99.90;;;;;;4993517;28;20218;-63
2023/03/26 07:27:39;;;;;;;1.27;1.00;;;10.50;99.90;;;;;;4999530;28;20212;-63
2023/03/26 07:30:12;;;;;;;1.10;1.10;;;10.60;99.90;;;;;;5004507;28;20190;-64
2023/03/26 07:32:47;;;;;;;1.10;1.10;;;10.70;99.90;;;;;;4998439;28;20201;-65
2023/03/26 07:35:20;;;;;;;1.15;1.05;;;10.70;99.90;;;;;;4993003;28;20232;-64
2023/03/26 07:37:58;;;;;;;0.90;0.90;;;10.70;99.90;;;;;;4992684;28;20214;-64
2023/03/26 07:40:43;;;;;;;0.95;0.95;;;10.70;99.90;;;;;;4992032;28;20249;-64
2023/03/26 07:43:22;;;;;;;1.10;1.00;;;10.80;99.90;;;;;;4992101;28;20210;-64
2023/03/26 07:45:50;;;;;;;1.13;1.13;;;10.80;99.90;;;;;;4991872;28;20300;-64
2023/03/26 07:48:19;;;;;;;0.90;0.90;;;10.80;99.90;;;;;;4991490;28;20208;-63
2023/03/26 07:50:49;;;;;;;0.80;0.73;;;10.80;99.90;;;;;;4990658;28;20205;-64
2023/03/26 07:53:16;;;;;;;1.00;1.00;;;10.90;99.90;;;;;;4991504;28;20622;-65
2023/03/26 07:55:50;;;;;;;0.90;0.90;;;11.00;99.90;;;;;;4990751;28;20289;-64
2023/03/26 07:58:32;;;;;;;0.87;0.87;;;11.00;99.90;;;;;;4989049;28;20197;-63
2023/03/26 08:01:08;;;;;;;0.90;0.90;;;11.10;99.90;;;;;;4985232;28;20217;-64
2023/03/26 08:03:56;;;;;;;0.90;0.90;;;11.10;99.90;;;;;;4988768;28;20276;-64
2023/03/26 08:06:33;;;;;;;1.30;0.97;;;11.10;99.90;;;;;;4990333;28;20229;-64
2023/03/26 08:09:07;;;;;;;0.70;0.70;;;11.10;99.90;;;;;;4991706;28;20212;-64
2023/03/26 08:11:46;;;;;;;0.77;0.77;;;11.10;99.90;;;;;;4991933;28;20265;-63
2023/03/26 08:14:23;;;;;;;0.70;0.70;;;11.20;99.90;;;;;;4992542;28;20268;-63
2023/03/26 08:16:55;;;;;;;0.60;0.60;;;11.30;99.90;;;;;;4994814;28;20197;-64
2023/03/26 08:19:36;;;;;;;0.60;0.60;;;11.30;99.90;;;;;;4994880;28;20204;-65
2023/03/26 08:22:11;;;;;;;0.70;0.70;;;11.40;99.90;;;;;;4992890;28;20268;-63
2023/03/26 08:25:01;;;;;;;0.40;0.40;;;11.50;99.90;;;;;;4994563;28;20628;-64
2023/03/26 08:27:37;;;;;;;0.47;0.47;;;11.60;99.90;;;;;;4993290;28;20198;-64
2023/03/26 08:30:09;;;;;;;0.50;0.50;;;11.60;99.90;;;;;;4995228;28;20259;-64
2023/03/26 08:32:36;;;;;;;0.50;0.50;;;11.60;99.90;;;;;;4995161;28;20304;-65
2023/03/26 08:35:03;;;;;;;0.60;0.60;;;11.60;99.90;;;;;;4994769;28;20320;-64
2023/03/26 08:37:32;;;;;;;0.52;0.52;;;11.60;99.90;;;;;;4996246;28;20213;-63
2023/03/26 08:39:59;;;;;;;0.70;0.70;;;11.70;99.90;;;;;;4999068;28;20273;-64
2023/03/26 08:42:53;;;;;;;0.50;0.50;;;11.60;99.90;;;;;;5000090;28;20213;-62
2023/03/26 08:45:43;;;;;;;0.50;0.50;;;11.70;99.90;;;;;;4999150;28;20783;-63
2023/03/26 08:48:36;;;;;;;0.70;0.70;;;12.10;99.90;;;;;;4997711;28;20708;-63
2023/03/26 08:51:36;;;;;;;0.73;0.65;;;12.50;99.90;;;;;;4996102;28;20882;-63
2023/03/26 08:54:29;;;;;;;0.70;0.70;;;12.50;99.90;;;;;;4996309;28;20346;-64
2023/03/26 08:57:11;;;;;;;0.63;0.63;;;12.40;99.90;;;;;;4984445;28;20214;-64
2023/03/26 09:00:10;;;;;;;0.95;0.95;;;12.20;99.90;;;;;;4995652;28;20206;-64
2023/03/26 09:03:00;;;;;;;0.80;0.80;;;12.10;99.90;;;;;;4990006;28;20210;-62
2023/03/26 09:05:47;;;;;;;0.47;0.47;;;12.00;99.90;;;;;;4987408;28;20297;-64
2023/03/26 09:08:50;;;;;;;0.33;0.33;;;11.90;99.90;;;;;;4995398;28;20213;-63
2023/03/26 09:12:00;;;;;;;0.40;0.40;;;11.80;99.90;;;;;;4993843;28;20201;-65
2023/03/26 09:15:06;;;;;;;0.50;0.50;;;12.20;99.90;;;;;;4995445;28;20630;-64
2023/03/26 09:18:17;;;;;;;0.40;0.40;;;12.60;99.90;;;;;;4995316;28;20292;-63
2023/03/26 09:21:12;;;;;;;0.40;0.40;;;13.00;99.90;;;;;;4973569;28;20298;-64
2023/03/26 09:24:11;;;;;;;0.40;0.40;;;13.10;99.90;;;;;;4995338;28;20234;-65
2023/03/26 09:26:46;;;;;;;0.43;0.43;;;13.10;99.90;;;;;;4990669;28;20326;-64
2023/03/26 09:30:09;;;;;;;0.60;0.60;;;13.00;99.90;;;;;;4994002;28;20216;-64
2023/03/26 09:33:10;;;;;;;0.60;0.60;;;12.90;99.90;;;;;;4931899;29;20235;-64
2023/03/26 09:35:52;;;;;;;0.40;0.40;;;12.80;99.90;;;;;;4903984;29;20246;-65
2023/03/26 09:38:42;;;;;;;0.57;0.57;;;12.70;99.90;;;;;;4991173;28;20210;-63
2023/03/26 09:41:15;;;;;;;0.33;0.33;;;12.80;99.90;;;;;;4992666;28;20268;-65
2023/03/26 09:44:12;;;;;;;0.77;0.77;;;13.00;99.90;;;;;;4993157;28;20234;-64
2023/03/26 09:46:49;;;;;;;0.53;0.53;;;13.10;99.90;;;;;;4998221;28;20635;-65
2023/03/26 09:49:38;;;;;;;0.30;0.30;;;13.00;99.90;;;;;;4993351;28;20221;-64
2023/03/26 09:52:29;;;;;;;0.47;0.47;;;12.90;99.90;;;;;;4993506;28;20210;-65
2023/03/26 09:55:28;;;;;;;0.57;0.57;;;12.90;99.90;;;;;;5009823;28;20301;-65
2023/03/26 09:58:25;;;;;;;0.80;0.80;;;12.90;99.90;;;;;;4994297;28;20285;-64
2023/03/26 10:01:04;;;;;;;0.60;0.60;;;13.00;99.90;;;;;;4966755;28;20206;-65
2023/03/26 10:03:45;;;;;;;0.50;0.50;;;13.20;99.90;;;;;;4993725;28;20202;-64
2023/03/26 10:06:35;;;;;;;0.93;0.60;;;13.10;99.90;;;;;;4972419;28;20203;-63
2023/03/26 10:09:24;;;;;;;0.80;0.80;;;13.20;99.90;;;;;;4974327;28;20203;-63
2023/03/26 10:12:10;;;;;;;0.60;0.60;;;13.70;99.90;;;;;;4979981;28;20210;-63
2023/03/26 10:14:45;;;;;;;0.80;0.80;;;14.20;99.90;;;;;;5001053;28;20234;-66
2023/03/26 10:17:32;;;;;;;0.53;0.53;;;14.60;99.90;;;;;;5000676;28;20607;-64
2023/03/26 10:20:16;;;;;;;0.60;0.60;;;14.70;99.90;;;;;;4999323;28;20237;-65
2023/03/26 10:22:53;;;;;;;0.57;0.57;;;14.90;99.90;;;;;;4997674;28;20202;-64
2023/03/26 10:25:51;;;;;;;0.77;0.77;;;14.90;99.90;;;;;;4999354;28;20222;-65
2023/03/26 10:28:35;;;;;;;0.70;0.70;;;15.20;99.90;;;;;;4990045;28;20206;-65
2023/03/26 10:31:34;;;;;;;0.68;0.68;;;15.50;99.90;;;;;;4992497;28;20267;-64
2023/03/26 10:34:10;;;;;;;0.63;0.63;;;15.70;99.90;;;;;;4996395;28;20233;-64
2023/03/26 10:36:39;;;;;;;0.50;0.50;;;15.80;99.90;;;;;;4994786;28;20216;-64
2023/03/26 10:39:30;;;;;;;0.43;0.43;;;16.00;99.90;;;;;;4991427;28;20217;-64
2023/03/26 10:42:07;;;;;;;0.80;0.80;;;15.90;99.90;;;;;;4992967;28;20878;-64
2023/03/26 10:44:55;;;;;;;0.70;0.70;;;15.90;99.90;;;;;;4992699;28;20355;-65
2023/03/26 10:47:38;;;;;;;0.90;0.90;;;15.90;99.90;;;;;;4992519;28;20298;-65
2023/03/26 10:50:29;;;;;;;0.70;0.70;;;15.90;99.90;;;;;;4991511;28;20300;-63
2023/03/26 10:53:01;;;;;;;0.80;0.80;;;16.00;99.90;;;;;;4994457;28;20202;-63
2023/03/26 10:55:32;;;;;;;0.70;0.70;;;15.90;99.90;;;;;;4994010;28;20380;-66
2023/03/26 10:58:04;;;;;;;0.70;0.70;;;16.00;99.90;;;;;;4992885;28;20505;-63
2023/03/26 11:00:34;;;;;;;0.80;0.80;;;16.30;99.90;;;;;;4991442;28;20201;-63
2023/03/26 11:03:20;;;;;;;0.85;0.85;;;16.40;99.90;;;;;;4984267;28;20216;-63
2023/03/26 11:05:57;;;;;;;0.60;0.60;;;16.50;99.90;;;;;;4991166;28;20209;-64
2023/03/26 11:08:32;;;;;;;0.80;0.80;;;16.50;99.90;;;;;;4990233;28;20729;-65
2023/03/26 11:11:06;;;;;;;0.60;0.60;;;16.60;99.90;;;;;;4992034;28;20197;-65
2023/03/26 11:13:46;;;;;;;0.80;0.80;;;16.60;99.90;;;;;;4990769;28;20668;-63
2023/03/26 11:16:19;;;;;;;1.00;1.00;;;16.70;99.90;;;;;;4987731;28;20252;-63
2023/03/26 11:18:53;;;;;;;0.75;0.75;;;17.00;99.90;;;;;;4998025;28;20210;-64
2023/03/26 11:21:28;;;;;;;0.73;0.73;;;17.20;99.90;;;;;;5000798;28;20201;-64
2023/03/26 11:24:12;;;;;;;0.70;0.70;;;17.30;99.90;;;;;;5002411;28;20595;-65
2023/03/26 11:26:51;;;;;;;0.80;0.80;;;17.10;99.90;;;;;;4993554;28;20194;-63
2023/03/26 11:29:39;;;;;;;0.50;0.50;;;16.60;99.90;;;;;;5001765;28;20202;-64
2023/03/26 11:32:10;;;;;;;0.50;0.50;;;16.20;99.90;;;;;;4990506;28;20660;-63
2023/03/26 11:34:41;;;;;;;0.60;0.60;;;16.00;99.90;;;;;;4986846;28;20248;-64
2023/03/26 11:37:16;;;;;;;0.60;0.60;;;15.90;99.90;;;;;;4989965;28;20285;-65
2023/03/26 11:39:49;;;;;;;0.80;0.80;;;15.90;99.90;;;;;;4993128;28;20201;-63
2023/03/26 11:42:18;;;;;;;0.70;0.70;;;15.80;99.90;;;;;;4992743;28;20326;-63
2023/03/26 11:44:51;;;;;;;0.70;0.70;;;16.00;99.90;;;;;;4990224;28;20265;-63
2023/03/26 11:47:23;;;;;;;0.70;0.70;;;16.20;99.90;;;;;;4982840;28;20277;-66
2023/03/26 11:49:53;;;;;;;0.73;0.73;;;16.30;99.90;;;;;;4985136;28;20282;-65
2023/03/26 11:52:22;;;;;;;0.60;0.60;;;16.40;99.90;;;;;;4989648;28;20249;-65
2023/03/26 11:54:49;;;;;;;0.60;0.60;;;16.50;99.90;;;;;;4988145;28;20222;-66
2023/03/26 11:57:21;;;;;;;0.88;0.88;;;16.50;99.90;;;;;;4983305;28;20217;-66
2023/03/26 11:59:54;;;;;;;0.60;0.60;;;16.50;99.90;;;;;;4981560;28;20711;-65
2023/03/26 12:02:31;;;;;;;0.60;0.60;;;16.40;99.90;;;;;;4991083;28;20221;-66
2023/03/26 12:05:16;;;;;;;0.70;0.70;;;16.40;99.90;;;;;;4987717;28;20530;-66
2023/03/26 12:07:52;;;;;;;0.70;0.70;;;16.40;99.90;;;;;;4988438;28;20205;-65
2023/03/26 12:10:25;;;;;;;0.60;0.60;;;16.40;99.90;;;;;;4986608;28;20829;-64
2023/03/26 12:12:55;;;;;;;0.80;0.80;;;16.40;99.90;;;;;;4994465;28;20206;-66
2023/03/26 12:15:22;;;;;;;0.80;0.80;;;16.40;99.90;;;;;;5000942;28;20222;-64
2023/03/26 12:17:54;;;;;;;0.60;0.60;;;16.30;99.90;;;;;;4992464;28;20221;-64
2023/03/26 12:20:37;;;;;;;0.60;0.60;;;16.20;99.90;;;;;;4988593;28;20198;-66
2023/03/26 12:23:06;;;;;;;0.60;0.60;;;16.20;99.90;;;;;;4989470;28;20270;-65
2023/03/26 12:25:35;;;;;;;0.60;0.60;;;16.00;99.90;;;;;;4990502;28;20229;-63
2023/03/26 12:28:04;;;;;;;0.77;0.77;;;15.90;99.90;;;;;;4990499;28;20233;-63
2023/03/26 12:30:33;;;;;;;0.80;0.80;;;15.80;99.90;;;;;;4990397;28;20285;-64
2023/03/26 12:33:03;;;;;;;0.80;0.80;;;15.70;99.90;;;;;;4990165;28;20218;-64
2023/03/26 12:35:33;;;;;;;0.70;0.70;;;15.60;99.90;;;;;;4989528;28;20230;-64
2023/03/26 12:38:21;;;;;;;0.70;0.70;;;15.40;99.90;;;;;;4982289;28;20305;-63
2023/03/26 12:40:49;;;;;;;0.60;0.60;;;15.40;99.90;;;;;;4991068;28;20209;-64
2023/03/26 12:43:28;;;;;;;0.70;0.70;;;15.30;99.90;;;;;;4991372;28;20212;-63
2023/03/26 12:45:57;;;;;;;0.90;0.90;;;15.20;99.90;;;;;;4991540;28;20397;-62
2023/03/26 12:48:25;;;;;;;0.67;0.67;;;14.80;99.90;;;;;;4991106;28;20214;-64
2023/03/26 12:51:06;;;;;;;1.00;0.97;;;14.30;99.90;;;;;;4989859;28;20233;-62
2023/03/26 12:53:50;;;;;;;0.70;0.70;;;14.00;99.90;;;;;;4992310;28;20645;-63
2023/03/26 12:56:21;;;;;;;0.70;0.70;;;13.80;99.90;;;;;;4990884;28;20345;-64
2023/03/26 12:59:02;;;;;;;0.93;0.90;;;13.50;99.90;;;;;;4986302;28;20844;-62
2023/03/26 13:01:42;;;;;;;0.80;0.80;;;13.50;99.90;;;;;;4987443;28;20201;-62
2023/03/26 13:04:44;;;;;;;1.00;1.00;;;13.30;99.90;;;;;;4993360;28;20226;-65
2023/03/26 13:07:20;;;;;;;1.03;1.03;;;13.20;99.90;;;;;;4989146;28;20296;-64
2023/03/26 13:10:14;;;;;;;1.03;1.03;;;13.40;99.90;;;;;;4995898;28;20215;-64
2023/03/26 13:12:48;;;;;;;0.90;0.90;;;13.50;99.90;;;;;;4993634;28;20231;-64
2023/03/26 13:15:25;;;;;;;1.00;1.00;;;13.40;99.90;;;;;;4987408;28;20221;-63
2023/03/26 13:18:06;;;;;;;1.00;1.00;;;13.40;99.90;;;;;;4996446;28;20198;-63
2023/03/26 13:20:47;;;;;;;0.87;0.87;;;13.40;99.90;;;;;;4997012;28;20210;-65
2023/03/26 13:23:27;;;;;;;0.87;0.83;;;13.40;99.90;;;;;;4993645;28;20225;-65